sensor_id;sensor_type;location;lat;lon;timestamp;P1;durP1;ratioP1;P2;durP2;ratioP2
7529;SDS011;3806;52.270;10.544;2023-04-06T00:01:09;5.57;;;2.47;;
7529;SDS011;3806;52.270;10.544;2023-04-06T00:03:35;4.93;;;3.00;;
7529;SDS011;3806;52.270;10.544;2023-04-06T00:06:01;5.57;;;2.10;;
7529;SDS011;3806;52.270;10.544;2023-04-06T00:08:27;5.38;;;2.47;;
7529;SDS011;3806;52.270;10.544;2023-04-06T00:10:52;3.45;;;2.30;;
7529;SDS011;3806;52.270;10.544;2023-04-06T00:13:18;5.55;;;3.15;;
7529;SDS011;3806;52.270;10.544;2023-04-06T00:15:43;5.78;;;2.60;;
7529;SDS011;3806;52.270;10.544;2023-04-06T00:18:09;5.70;;;2.70;;
7529;SDS011;3806;52.270;10.544;2023-04-06T00:20:35;3.63;;;2.08;;
7529;SDS011;3806;52.270;10.544;2023-04-06T00:23:00;7.03;;;2.40;;
7529;SDS011;3806;52.270;10.544;2023-04-06T00:25:26;4.47;;;2.67;;
7529;SDS011;3806;52.270;10.544;2023-04-06T00:27:51;5.35;;;2.10;;
7529;SDS011;3806;52.270;10.544;2023-04-06T00:30:17;6.45;;;2.83;;
7529;SDS011;3806;52.270;10.544;2023-04-06T00:32:43;5.30;;;2.55;;
7529;SDS011;3806;52.270;10.544;2023-04-06T00:35:08;4.07;;;2.47;;
7529;SDS011;3806;52.270;10.544;2023-04-06T00:37:34;3.60;;;2.33;;
7529;SDS011;3806;52.270;10.544;2023-04-06T00:40:00;6.95;;;2.60;;
7529;SDS011;3806;52.270;10.544;2023-04-06T00:42:25;6.20;;;2.80;;
7529;SDS011;3806;52.270;10.544;2023-04-06T00:44:54;4.00;;;2.83;;
7529;SDS011;3806;52.270;10.544;2023-04-06T00:47:22;4.63;;;2.47;;
7529;SDS011;3806;52.270;10.544;2023-04-06T00:49:50;5.07;;;2.33;;
7529;SDS011;3806;52.270;10.544;2023-04-06T00:52:16;4.25;;;2.55;;
7529;SDS011;3806;52.270;10.544;2023-04-06T00:54:42;5.32;;;2.13;;
7529;SDS011;3806;52.270;10.544;2023-04-06T00:57:08;7.68;;;3.25;;
7529;SDS011;3806;52.270;10.544;2023-04-06T00:59:35;3.78;;;2.45;;
7529;SDS011;3806;52.270;10.544;2023-04-06T01:02:00;5.22;;;2.88;;
7529;SDS011;3806;52.270;10.544;2023-04-06T01:04:26;3.92;;;2.50;;
7529;SDS011;3806;52.270;10.544;2023-04-06T01:06:52;4.93;;;3.08;;
7529;SDS011;3806;52.270;10.544;2023-04-06T01:09:17;6.75;;;2.50;;
7529;SDS011;3806;52.270;10.544;2023-04-06T01:11:43;5.50;;;3.58;;
7529;SDS011;3806;52.270;10.544;2023-04-06T01:14:09;3.33;;;2.40;;
7529;SDS011;3806;52.270;10.544;2023-04-06T01:16:34;7.85;;;2.80;;
7529;SDS011;3806;52.270;10.544;2023-04-06T01:19:00;3.65;;;2.67;;
7529;SDS011;3806;52.270;10.544;2023-04-06T01:21:31;5.85;;;2.97;;
7529;SDS011;3806;52.270;10.544;2023-04-06T01:23:56;4.28;;;2.30;;
7529;SDS011;3806;52.270;10.544;2023-04-06T01:26:22;4.15;;;2.70;;
7529;SDS011;3806;52.270;10.544;2023-04-06T01:28:47;4.35;;;2.65;;
7529;SDS011;3806;52.270;10.544;2023-04-06T01:31:13;6.60;;;3.10;;
7529;SDS011;3806;52.270;10.544;2023-04-06T01:33:38;6.30;;;3.33;;
7529;SDS011;3806;52.270;10.544;2023-04-06T01:36:04;3.80;;;2.95;;
7529;SDS011;3806;52.270;10.544;2023-04-06T01:38:30;8.20;;;3.38;;
7529;SDS011;3806;52.270;10.544;2023-04-06T01:40:56;4.05;;;2.72;;
7529;SDS011;3806;52.270;10.544;2023-04-06T01:43:21;5.13;;;2.88;;
7529;SDS011;3806;52.270;10.544;2023-04-06T01:45:47;5.13;;;3.08;;
7529;SDS011;3806;52.270;10.544;2023-04-06T01:48:13;5.95;;;3.15;;
7529;SDS011;3806;52.270;10.544;2023-04-06T01:50:39;3.78;;;2.90;;
7529;SDS011;3806;52.270;10.544;2023-04-06T01:53:04;8.68;;;3.70;;
7529;SDS011;3806;52.270;10.544;2023-04-06T01:55:30;4.47;;;3.60;;
7529;SDS011;3806;52.270;10.544;2023-04-06T01:57:56;4.97;;;2.97;;
7529;SDS011;3806;52.270;10.544;2023-04-06T02:00:21;4.70;;;2.65;;
7529;SDS011;3806;52.270;10.544;2023-04-06T02:02:47;7.35;;;3.40;;
7529;SDS011;3806;52.270;10.544;2023-04-06T02:05:12;5.15;;;3.38;;
7529;SDS011;3806;52.270;10.544;2023-04-06T02:07:38;5.82;;;3.47;;
7529;SDS011;3806;52.270;10.544;2023-04-06T02:10:03;5.18;;;3.30;;
7529;SDS011;3806;52.270;10.544;2023-04-06T02:12:29;6.13;;;2.97;;
7529;SDS011;3806;52.270;10.544;2023-04-06T02:14:55;4.40;;;3.30;;
7529;SDS011;3806;52.270;10.544;2023-04-06T02:17:20;4.53;;;3.20;;
7529;SDS011;3806;52.270;10.544;2023-04-06T02:19:45;5.60;;;3.33;;
7529;SDS011;3806;52.270;10.544;2023-04-06T02:22:11;4.00;;;2.60;;
7529;SDS011;3806;52.270;10.544;2023-04-06T02:24:37;5.13;;;3.10;;
7529;SDS011;3806;52.270;10.544;2023-04-06T02:27:02;6.03;;;2.90;;
7529;SDS011;3806;52.270;10.544;2023-04-06T02:29:28;4.32;;;3.05;;
7529;SDS011;3806;52.270;10.544;2023-04-06T02:31:53;4.22;;;3.35;;
7529;SDS011;3806;52.270;10.544;2023-04-06T02:34:19;6.55;;;3.55;;
7529;SDS011;3806;52.270;10.544;2023-04-06T02:36:44;5.93;;;3.65;;
7529;SDS011;3806;52.270;10.544;2023-04-06T02:39:10;5.63;;;3.75;;
7529;SDS011;3806;52.270;10.544;2023-04-06T02:41:36;6.65;;;2.92;;
7529;SDS011;3806;52.270;10.544;2023-04-06T02:44:02;5.57;;;3.72;;
7529;SDS011;3806;52.270;10.544;2023-04-06T02:46:28;6.15;;;3.45;;
7529;SDS011;3806;52.270;10.544;2023-04-06T02:48:53;5.50;;;3.05;;
7529;SDS011;3806;52.270;10.544;2023-04-06T02:51:19;5.22;;;3.50;;
7529;SDS011;3806;52.270;10.544;2023-04-06T02:53:45;4.82;;;3.80;;
7529;SDS011;3806;52.270;10.544;2023-04-06T02:56:11;4.97;;;3.38;;
7529;SDS011;3806;52.270;10.544;2023-04-06T02:58:36;5.43;;;3.33;;
7529;SDS011;3806;52.270;10.544;2023-04-06T03:01:02;4.93;;;2.92;;
7529;SDS011;3806;52.270;10.544;2023-04-06T03:03:28;7.22;;;4.07;;
7529;SDS011;3806;52.270;10.544;2023-04-06T03:05:53;5.63;;;3.03;;
7529;SDS011;3806;52.270;10.544;2023-04-06T03:08:21;4.72;;;3.70;;
7529;SDS011;3806;52.270;10.544;2023-04-06T03:10:46;6.15;;;3.83;;
7529;SDS011;3806;52.270;10.544;2023-04-06T03:13:12;4.80;;;3.67;;
7529;SDS011;3806;52.270;10.544;2023-04-06T03:15:37;9.07;;;4.10;;
7529;SDS011;3806;52.270;10.544;2023-04-06T03:18:03;6.88;;;4.35;;
7529;SDS011;3806;52.270;10.544;2023-04-06T03:20:28;4.75;;;3.50;;
7529;SDS011;3806;52.270;10.544;2023-04-06T03:22:54;4.68;;;3.45;;
7529;SDS011;3806;52.270;10.544;2023-04-06T03:25:20;4.93;;;3.20;;
7529;SDS011;3806;52.270;10.544;2023-04-06T03:27:45;6.03;;;3.65;;
7529;SDS011;3806;52.270;10.544;2023-04-06T03:30:11;5.13;;;3.83;;
7529;SDS011;3806;52.270;10.544;2023-04-06T03:32:36;5.00;;;3.15;;
7529;SDS011;3806;52.270;10.544;2023-04-06T03:35:02;6.07;;;3.60;;
7529;SDS011;3806;52.270;10.544;2023-04-06T03:37:28;6.63;;;3.67;;
7529;SDS011;3806;52.270;10.544;2023-04-06T03:39:53;4.88;;;3.25;;
7529;SDS011;3806;52.270;10.544;2023-04-06T03:42:19;6.93;;;3.45;;
7529;SDS011;3806;52.270;10.544;2023-04-06T03:44:44;4.63;;;3.38;;
7529;SDS011;3806;52.270;10.544;2023-04-06T03:47:10;4.88;;;3.17;;
7529;SDS011;3806;52.270;10.544;2023-04-06T03:49:35;7.97;;;3.88;;
7529;SDS011;3806;52.270;10.544;2023-04-06T03:52:01;4.50;;;3.50;;
7529;SDS011;3806;52.270;10.544;2023-04-06T03:54:27;7.55;;;4.20;;
7529;SDS011;3806;52.270;10.544;2023-04-06T03:56:52;6.22;;;3.80;;
7529;SDS011;3806;52.270;10.544;2023-04-06T03:59:18;9.27;;;3.97;;
7529;SDS011;3806;52.270;10.544;2023-04-06T04:01:43;7.47;;;4.22;;
7529;SDS011;3806;52.270;10.544;2023-04-06T04:04:09;6.88;;;4.13;;
7529;SDS011;3806;52.270;10.544;2023-04-06T04:06:35;5.35;;;3.25;;
7529;SDS011;3806;52.270;10.544;2023-04-06T04:09:01;8.88;;;3.70;;
7529;SDS011;3806;52.270;10.544;2023-04-06T04:11:28;6.30;;;3.92;;
7529;SDS011;3806;52.270;10.544;2023-04-06T04:13:53;7.68;;;4.40;;
7529;SDS011;3806;52.270;10.544;2023-04-06T04:16:19;5.28;;;3.50;;
7529;SDS011;3806;52.270;10.544;2023-04-06T04:18:44;5.10;;;3.72;;
7529;SDS011;3806;52.270;10.544;2023-04-06T04:21:12;6.68;;;3.65;;
7529;SDS011;3806;52.270;10.544;2023-04-06T04:23:37;7.10;;;3.55;;
7529;SDS011;3806;52.270;10.544;2023-04-06T04:26:03;5.20;;;4.05;;
7529;SDS011;3806;52.270;10.544;2023-04-06T04:28:28;5.22;;;4.00;;
7529;SDS011;3806;52.270;10.544;2023-04-06T04:30:54;5.30;;;3.42;;
7529;SDS011;3806;52.270;10.544;2023-04-06T04:33:19;6.80;;;3.90;;
7529;SDS011;3806;52.270;10.544;2023-04-06T04:35:45;7.43;;;3.90;;
7529;SDS011;3806;52.270;10.544;2023-04-06T04:38:10;6.20;;;4.05;;
7529;SDS011;3806;52.270;10.544;2023-04-06T04:40:36;5.60;;;3.80;;
7529;SDS011;3806;52.270;10.544;2023-04-06T04:43:01;6.18;;;3.90;;
7529;SDS011;3806;52.270;10.544;2023-04-06T04:45:27;5.78;;;4.03;;
7529;SDS011;3806;52.270;10.544;2023-04-06T04:47:52;5.18;;;3.55;;
7529;SDS011;3806;52.270;10.544;2023-04-06T04:50:18;9.75;;;4.80;;
7529;SDS011;3806;52.270;10.544;2023-04-06T04:52:43;7.97;;;5.20;;
7529;SDS011;3806;52.270;10.544;2023-04-06T04:55:09;9.73;;;5.43;;
7529;SDS011;3806;52.270;10.544;2023-04-06T04:57:34;7.15;;;4.63;;
7529;SDS011;3806;52.270;10.544;2023-04-06T05:00:00;6.10;;;4.53;;
7529;SDS011;3806;52.270;10.544;2023-04-06T05:02:26;6.07;;;4.43;;
7529;SDS011;3806;52.270;10.544;2023-04-06T05:04:52;6.50;;;4.80;;
7529;SDS011;3806;52.270;10.544;2023-04-06T05:07:17;5.28;;;4.65;;
7529;SDS011;3806;52.270;10.544;2023-04-06T05:09:43;7.15;;;5.03;;
7529;SDS011;3806;52.270;10.544;2023-04-06T05:12:09;6.00;;;4.68;;
7529;SDS011;3806;52.270;10.544;2023-04-06T05:14:35;6.07;;;4.38;;
7529;SDS011;3806;52.270;10.544;2023-04-06T05:17:01;6.28;;;4.07;;
7529;SDS011;3806;52.270;10.544;2023-04-06T05:19:26;9.93;;;4.97;;
7529;SDS011;3806;52.270;10.544;2023-04-06T05:21:52;7.38;;;4.15;;
7529;SDS011;3806;52.270;10.544;2023-04-06T05:24:17;7.57;;;5.10;;
7529;SDS011;3806;52.270;10.544;2023-04-06T05:26:43;5.82;;;4.40;;
7529;SDS011;3806;52.270;10.544;2023-04-06T05:29:09;5.93;;;4.38;;
7529;SDS011;3806;52.270;10.544;2023-04-06T05:31:35;5.63;;;4.53;;
7529;SDS011;3806;52.270;10.544;2023-04-06T05:34:01;8.05;;;4.85;;
7529;SDS011;3806;52.270;10.544;2023-04-06T05:36:26;6.57;;;4.22;;
7529;SDS011;3806;52.270;10.544;2023-04-06T05:38:52;8.13;;;4.70;;
7529;SDS011;3806;52.270;10.544;2023-04-06T05:41:18;6.82;;;4.55;;
7529;SDS011;3806;52.270;10.544;2023-04-06T05:43:43;6.60;;;5.78;;
7529;SDS011;3806;52.270;10.544;2023-04-06T05:46:09;5.78;;;4.57;;
7529;SDS011;3806;52.270;10.544;2023-04-06T05:48:35;5.72;;;4.40;;
7529;SDS011;3806;52.270;10.544;2023-04-06T05:51:01;6.60;;;4.40;;
7529;SDS011;3806;52.270;10.544;2023-04-06T05:53:30;9.45;;;4.35;;
7529;SDS011;3806;52.270;10.544;2023-04-06T05:55:56;6.97;;;3.97;;
7529;SDS011;3806;52.270;10.544;2023-04-06T05:58:22;5.35;;;3.92;;
7529;SDS011;3806;52.270;10.544;2023-04-06T06:00:47;5.63;;;4.65;;
7529;SDS011;3806;52.270;10.544;2023-04-06T06:03:13;6.15;;;4.22;;
7529;SDS011;3806;52.270;10.544;2023-04-06T06:05:40;5.45;;;4.53;;
7529;SDS011;3806;52.270;10.544;2023-04-06T06:08:05;6.28;;;4.57;;
7529;SDS011;3806;52.270;10.544;2023-04-06T06:10:31;7.03;;;4.43;;
7529;SDS011;3806;52.270;10.544;2023-04-06T06:12:57;7.10;;;4.47;;
7529;SDS011;3806;52.270;10.544;2023-04-06T06:15:22;6.63;;;3.85;;
7529;SDS011;3806;52.270;10.544;2023-04-06T06:17:47;7.05;;;4.35;;
7529;SDS011;3806;52.270;10.544;2023-04-06T06:20:13;5.82;;;3.83;;
7529;SDS011;3806;52.270;10.544;2023-04-06T06:22:39;8.15;;;3.90;;
7529;SDS011;3806;52.270;10.544;2023-04-06T06:25:05;6.60;;;4.35;;
7529;SDS011;3806;52.270;10.544;2023-04-06T06:27:30;5.57;;;3.35;;
7529;SDS011;3806;52.270;10.544;2023-04-06T06:29:56;4.43;;;3.45;;
7529;SDS011;3806;52.270;10.544;2023-04-06T06:32:22;4.60;;;3.53;;
7529;SDS011;3806;52.270;10.544;2023-04-06T06:34:47;5.38;;;3.83;;
7529;SDS011;3806;52.270;10.544;2023-04-06T06:37:13;4.28;;;3.42;;
7529;SDS011;3806;52.270;10.544;2023-04-06T06:39:38;4.13;;;3.38;;
7529;SDS011;3806;52.270;10.544;2023-04-06T06:42:04;4.95;;;3.28;;
7529;SDS011;3806;52.270;10.544;2023-04-06T06:44:30;4.93;;;3.65;;
7529;SDS011;3806;52.270;10.544;2023-04-06T06:46:55;5.05;;;3.75;;
7529;SDS011;3806;52.270;10.544;2023-04-06T06:49:21;4.15;;;3.47;;
7529;SDS011;3806;52.270;10.544;2023-04-06T06:51:46;9.32;;;3.38;;
7529;SDS011;3806;52.270;10.544;2023-04-06T06:54:12;3.97;;;3.30;;
7529;SDS011;3806;52.270;10.544;2023-04-06T06:56:38;4.97;;;3.40;;
7529;SDS011;3806;52.270;10.544;2023-04-06T06:59:04;6.15;;;3.88;;
7529;SDS011;3806;52.270;10.544;2023-04-06T07:01:32;5.20;;;3.55;;
7529;SDS011;3806;52.270;10.544;2023-04-06T07:03:58;3.88;;;2.90;;
7529;SDS011;3806;52.270;10.544;2023-04-06T07:06:23;4.43;;;3.20;;
7529;SDS011;3806;52.270;10.544;2023-04-06T07:08:49;5.60;;;3.55;;
7529;SDS011;3806;52.270;10.544;2023-04-06T07:11:15;3.80;;;3.13;;
7529;SDS011;3806;52.270;10.544;2023-04-06T07:13:41;4.78;;;2.78;;
7529;SDS011;3806;52.270;10.544;2023-04-06T07:16:07;5.15;;;3.45;;
7529;SDS011;3806;52.270;10.544;2023-04-06T07:18:33;4.68;;;3.13;;
7529;SDS011;3806;52.270;10.544;2023-04-06T07:20:58;6.07;;;3.22;;
7529;SDS011;3806;52.270;10.544;2023-04-06T07:23:24;3.90;;;3.50;;
7529;SDS011;3806;52.270;10.544;2023-04-06T07:25:49;4.45;;;3.28;;
7529;SDS011;3806;52.270;10.544;2023-04-06T07:28:17;5.55;;;3.60;;
7529;SDS011;3806;52.270;10.544;2023-04-06T07:30:42;4.03;;;3.35;;
7529;SDS011;3806;52.270;10.544;2023-04-06T07:33:08;5.25;;;3.42;;
7529;SDS011;3806;52.270;10.544;2023-04-06T07:35:33;3.72;;;3.13;;
7529;SDS011;3806;52.270;10.544;2023-04-06T07:38:01;3.80;;;3.40;;
7529;SDS011;3806;52.270;10.544;2023-04-06T07:40:27;5.53;;;3.63;;
7529;SDS011;3806;52.270;10.544;2023-04-06T07:42:52;6.15;;;3.55;;
7529;SDS011;3806;52.270;10.544;2023-04-06T07:45:18;4.60;;;3.50;;
7529;SDS011;3806;52.270;10.544;2023-04-06T07:47:44;6.15;;;3.33;;
7529;SDS011;3806;52.270;10.544;2023-04-06T07:50:10;4.95;;;3.40;;
7529;SDS011;3806;52.270;10.544;2023-04-06T07:52:36;4.35;;;3.45;;
7529;SDS011;3806;52.270;10.544;2023-04-06T07:55:01;6.55;;;3.75;;
7529;SDS011;3806;52.270;10.544;2023-04-06T07:57:27;5.18;;;3.58;;
7529;SDS011;3806;52.270;10.544;2023-04-06T07:59:52;6.18;;;3.80;;
7529;SDS011;3806;52.270;10.544;2023-04-06T08:02:18;5.50;;;3.72;;
7529;SDS011;3806;52.270;10.544;2023-04-06T08:04:43;5.05;;;3.45;;
7529;SDS011;3806;52.270;10.544;2023-04-06T08:07:09;6.47;;;4.40;;
7529;SDS011;3806;52.270;10.544;2023-04-06T08:09:35;6.90;;;3.80;;
7529;SDS011;3806;52.270;10.544;2023-04-06T08:12:00;4.63;;;3.67;;
7529;SDS011;3806;52.270;10.544;2023-04-06T08:14:26;4.95;;;3.85;;
7529;SDS011;3806;52.270;10.544;2023-04-06T08:16:52;5.38;;;3.90;;
7529;SDS011;3806;52.270;10.544;2023-04-06T08:19:17;5.75;;;3.80;;
7529;SDS011;3806;52.270;10.544;2023-04-06T08:21:43;4.82;;;3.85;;
7529;SDS011;3806;52.270;10.544;2023-04-06T08:24:11;7.05;;;4.38;;
7529;SDS011;3806;52.270;10.544;2023-04-06T08:26:36;4.43;;;3.55;;
7529;SDS011;3806;52.270;10.544;2023-04-06T08:29:02;4.93;;;3.80;;
7529;SDS011;3806;52.270;10.544;2023-04-06T08:31:29;5.55;;;4.00;;
7529;SDS011;3806;52.270;10.544;2023-04-06T08:33:55;5.05;;;3.42;;
7529;SDS011;3806;52.270;10.544;2023-04-06T08:36:20;6.07;;;3.95;;
7529;SDS011;3806;52.270;10.544;2023-04-06T08:38:47;4.10;;;3.50;;
7529;SDS011;3806;52.270;10.544;2023-04-06T08:41:14;5.53;;;3.80;;
7529;SDS011;3806;52.270;10.544;2023-04-06T08:43:58;4.15;;;3.58;;
7529;SDS011;3806;52.270;10.544;2023-04-06T08:46:24;6.72;;;3.60;;
7529;SDS011;3806;52.270;10.544;2023-04-06T08:48:57;5.20;;;3.45;;
7529;SDS011;3806;52.270;10.544;2023-04-06T08:51:27;4.25;;;3.83;;
7529;SDS011;3806;52.270;10.544;2023-04-06T08:53:55;6.22;;;3.90;;
7529;SDS011;3806;52.270;10.544;2023-04-06T08:56:25;4.25;;;3.50;;
7529;SDS011;3806;52.270;10.544;2023-04-06T08:58:52;4.55;;;3.50;;
7529;SDS011;3806;52.270;10.544;2023-04-06T09:01:25;4.93;;;3.38;;
7529;SDS011;3806;52.270;10.544;2023-04-06T09:03:55;4.50;;;3.47;;
7529;SDS011;3806;52.270;10.544;2023-04-06T09:06:25;5.65;;;4.00;;
7529;SDS011;3806;52.270;10.544;2023-04-06T09:08:51;6.15;;;3.47;;
7529;SDS011;3806;52.270;10.544;2023-04-06T09:11:17;7.82;;;4.43;;
7529;SDS011;3806;52.270;10.544;2023-04-06T09:13:50;4.80;;;3.85;;
7529;SDS011;3806;52.270;10.544;2023-04-06T09:16:17;6.15;;;4.25;;
7529;SDS011;3806;52.270;10.544;2023-04-06T09:18:43;5.95;;;3.92;;
7529;SDS011;3806;52.270;10.544;2023-04-06T09:21:09;5.75;;;4.38;;
7529;SDS011;3806;52.270;10.544;2023-04-06T09:23:35;5.30;;;4.22;;
7529;SDS011;3806;52.270;10.544;2023-04-06T09:26:05;6.53;;;4.40;;
7529;SDS011;3806;52.270;10.544;2023-04-06T09:28:45;6.18;;;4.47;;
7529;SDS011;3806;52.270;10.544;2023-04-06T09:31:14;7.80;;;4.55;;
7529;SDS011;3806;52.270;10.544;2023-04-06T09:33:41;6.40;;;4.22;;
7529;SDS011;3806;52.270;10.544;2023-04-06T09:36:08;6.35;;;4.90;;
7529;SDS011;3806;52.270;10.544;2023-04-06T09:38:38;4.90;;;4.03;;
7529;SDS011;3806;52.270;10.544;2023-04-06T09:41:20;6.88;;;4.40;;
7529;SDS011;3806;52.270;10.544;2023-04-06T09:44:01;7.90;;;4.70;;
7529;SDS011;3806;52.270;10.544;2023-04-06T09:46:42;5.57;;;4.20;;
7529;SDS011;3806;52.270;10.544;2023-04-06T09:49:09;6.20;;;4.28;;
7529;SDS011;3806;52.270;10.544;2023-04-06T09:51:40;6.30;;;4.32;;
7529;SDS011;3806;52.270;10.544;2023-04-06T09:54:09;10.27;;;4.65;;
7529;SDS011;3806;52.270;10.544;2023-04-06T09:56:45;5.53;;;4.40;;
7529;SDS011;3806;52.270;10.544;2023-04-06T09:59:25;8.13;;;4.45;;
7529;SDS011;3806;52.270;10.544;2023-04-06T10:02:02;7.32;;;4.75;;
7529;SDS011;3806;52.270;10.544;2023-04-06T10:06:59;5.82;;;4.05;;
7529;SDS011;3806;52.270;10.544;2023-04-06T10:09:28;8.48;;;4.85;;
7529;SDS011;3806;52.270;10.544;2023-04-06T10:12:00;6.60;;;4.60;;
7529;SDS011;3806;52.270;10.544;2023-04-06T10:14:31;8.90;;;5.13;;
7529;SDS011;3806;52.270;10.544;2023-04-06T10:17:01;7.70;;;4.97;;
7529;SDS011;3806;52.270;10.544;2023-04-06T10:19:29;8.80;;;5.53;;
7529;SDS011;3806;52.270;10.544;2023-04-06T10:22:07;9.48;;;5.13;;
7529;SDS011;3806;52.270;10.544;2023-04-06T10:24:37;6.47;;;4.07;;
7529;SDS011;3806;52.270;10.544;2023-04-06T10:27:03;7.28;;;5.05;;
7529;SDS011;3806;52.270;10.544;2023-04-06T10:29:44;7.00;;;4.63;;
7529;SDS011;3806;52.270;10.544;2023-04-06T10:32:10;5.97;;;4.20;;
7529;SDS011;3806;52.270;10.544;2023-04-06T10:34:36;8.77;;;5.70;;
7529;SDS011;3806;52.270;10.544;2023-04-06T10:37:14;9.85;;;5.03;;
7529;SDS011;3806;52.270;10.544;2023-04-06T10:39:53;6.18;;;4.30;;
7529;SDS011;3806;52.270;10.544;2023-04-06T10:42:23;7.93;;;4.20;;
7529;SDS011;3806;52.270;10.544;2023-04-06T10:44:50;7.60;;;4.90;;
7529;SDS011;3806;52.270;10.544;2023-04-06T10:47:16;7.47;;;4.93;;
7529;SDS011;3806;52.270;10.544;2023-04-06T10:49:45;7.47;;;5.00;;
7529;SDS011;3806;52.270;10.544;2023-04-06T10:52:10;7.07;;;5.05;;
7529;SDS011;3806;52.270;10.544;2023-04-06T10:54:40;7.63;;;5.03;;
7529;SDS011;3806;52.270;10.544;2023-04-06T10:57:07;6.90;;;4.60;;
7529;SDS011;3806;52.270;10.544;2023-04-06T10:59:33;7.95;;;5.05;;
7529;SDS011;3806;52.270;10.544;2023-04-06T11:01:58;7.70;;;4.63;;
7529;SDS011;3806;52.270;10.544;2023-04-06T11:04:24;8.70;;;5.55;;
7529;SDS011;3806;52.270;10.544;2023-04-06T11:06:50;6.78;;;4.40;;
7529;SDS011;3806;52.270;10.544;2023-04-06T11:09:26;6.90;;;5.03;;
7529;SDS011;3806;52.270;10.544;2023-04-06T11:11:52;7.28;;;5.20;;
7529;SDS011;3806;52.270;10.544;2023-04-06T11:14:18;6.78;;;4.63;;
7529;SDS011;3806;52.270;10.544;2023-04-06T11:16:45;8.15;;;5.00;;
7529;SDS011;3806;52.270;10.544;2023-04-06T11:19:13;8.35;;;4.68;;
7529;SDS011;3806;52.270;10.544;2023-04-06T11:21:42;6.95;;;4.72;;
7529;SDS011;3806;52.270;10.544;2023-04-06T11:24:13;7.25;;;4.72;;
7529;SDS011;3806;52.270;10.544;2023-04-06T11:26:49;9.05;;;4.88;;
7529;SDS011;3806;52.270;10.544;2023-04-06T11:29:26;6.50;;;4.53;;
7529;SDS011;3806;52.270;10.544;2023-04-06T11:32:02;10.02;;;4.68;;
7529;SDS011;3806;52.270;10.544;2023-04-06T11:34:33;7.57;;;4.82;;
7529;SDS011;3806;52.270;10.544;2023-04-06T11:37:02;7.20;;;4.47;;
7529;SDS011;3806;52.270;10.544;2023-04-06T11:39:32;6.95;;;4.35;;
7529;SDS011;3806;52.270;10.544;2023-04-06T11:42:08;7.88;;;4.40;;
7529;SDS011;3806;52.270;10.544;2023-04-06T11:44:35;7.57;;;4.55;;
7529;SDS011;3806;52.270;10.544;2023-04-06T11:47:02;7.70;;;5.57;;
7529;SDS011;3806;52.270;10.544;2023-04-06T11:49:28;7.20;;;5.13;;
7529;SDS011;3806;52.270;10.544;2023-04-06T11:51:55;8.73;;;4.78;;
7529;SDS011;3806;52.270;10.544;2023-04-06T11:54:37;7.13;;;4.93;;
7529;SDS011;3806;52.270;10.544;2023-04-06T11:57:03;7.90;;;4.82;;
7529;SDS011;3806;52.270;10.544;2023-04-06T11:59:30;8.23;;;4.70;;
7529;SDS011;3806;52.270;10.544;2023-04-06T12:01:59;9.52;;;4.70;;
7529;SDS011;3806;52.270;10.544;2023-04-06T12:04:26;5.93;;;4.50;;
7529;SDS011;3806;52.270;10.544;2023-04-06T12:06:51;7.93;;;4.55;;
7529;SDS011;3806;52.270;10.544;2023-04-06T12:09:17;9.02;;;5.65;;
7529;SDS011;3806;52.270;10.544;2023-04-06T12:11:45;6.95;;;4.93;;
7529;SDS011;3806;52.270;10.544;2023-04-06T12:14:13;6.57;;;4.28;;
7529;SDS011;3806;52.270;10.544;2023-04-06T12:16:39;8.18;;;5.28;;
7529;SDS011;3806;52.270;10.544;2023-04-06T12:19:05;7.32;;;4.85;;
7529;SDS011;3806;52.270;10.544;2023-04-06T12:21:30;7.00;;;4.25;;
7529;SDS011;3806;52.270;10.544;2023-04-06T12:23:56;8.38;;;4.30;;
7529;SDS011;3806;52.270;10.544;2023-04-06T12:26:23;7.13;;;4.80;;
7529;SDS011;3806;52.270;10.544;2023-04-06T12:28:49;6.78;;;4.40;;
7529;SDS011;3806;52.270;10.544;2023-04-06T12:31:15;9.70;;;5.88;;
7529;SDS011;3806;52.270;10.544;2023-04-06T12:33:48;7.43;;;5.03;;
7529;SDS011;3806;52.270;10.544;2023-04-06T12:36:15;6.18;;;4.65;;
7529;SDS011;3806;52.270;10.544;2023-04-06T12:38:48;6.15;;;4.53;;
7529;SDS011;3806;52.270;10.544;2023-04-06T12:41:14;9.38;;;4.75;;
7529;SDS011;3806;52.270;10.544;2023-04-06T12:43:40;7.00;;;4.43;;
7529;SDS011;3806;52.270;10.544;2023-04-06T12:46:07;6.38;;;4.57;;
7529;SDS011;3806;52.270;10.544;2023-04-06T12:48:32;6.82;;;4.43;;
7529;SDS011;3806;52.270;10.544;2023-04-06T12:50:59;7.88;;;4.50;;
7529;SDS011;3806;52.270;10.544;2023-04-06T12:53:26;7.85;;;4.47;;
7529;SDS011;3806;52.270;10.544;2023-04-06T12:55:53;6.72;;;5.00;;
7529;SDS011;3806;52.270;10.544;2023-04-06T12:58:20;10.48;;;4.15;;
7529;SDS011;3806;52.270;10.544;2023-04-06T13:00:46;6.25;;;4.38;;
7529;SDS011;3806;52.270;10.544;2023-04-06T13:03:12;5.43;;;3.65;;
7529;SDS011;3806;52.270;10.544;2023-04-06T13:05:43;6.75;;;4.57;;
7529;SDS011;3806;52.270;10.544;2023-04-06T13:08:09;7.43;;;4.22;;
7529;SDS011;3806;52.270;10.544;2023-04-06T13:10:35;6.32;;;4.03;;
7529;SDS011;3806;52.270;10.544;2023-04-06T13:13:01;6.32;;;4.25;;
7529;SDS011;3806;52.270;10.544;2023-04-06T13:15:26;5.68;;;3.40;;
7529;SDS011;3806;52.270;10.544;2023-04-06T13:17:52;5.72;;;3.88;;
7529;SDS011;3806;52.270;10.544;2023-04-06T13:20:17;5.85;;;3.88;;
7529;SDS011;3806;52.270;10.544;2023-04-06T13:22:43;7.63;;;4.07;;
7529;SDS011;3806;52.270;10.544;2023-04-06T13:25:08;5.55;;;3.22;;
7529;SDS011;3806;52.270;10.544;2023-04-06T13:27:34;6.78;;;4.22;;
7529;SDS011;3806;52.270;10.544;2023-04-06T13:30:00;5.40;;;3.70;;
7529;SDS011;3806;52.270;10.544;2023-04-06T13:32:27;5.55;;;4.03;;
7529;SDS011;3806;52.270;10.544;2023-04-06T13:34:56;5.53;;;3.95;;
7529;SDS011;3806;52.270;10.544;2023-04-06T13:37:22;5.78;;;4.00;;
7529;SDS011;3806;52.270;10.544;2023-04-06T13:39:47;6.72;;;4.15;;
7529;SDS011;3806;52.270;10.544;2023-04-06T13:42:13;5.45;;;4.30;;
7529;SDS011;3806;52.270;10.544;2023-04-06T13:44:38;7.45;;;4.22;;
7529;SDS011;3806;52.270;10.544;2023-04-06T13:47:04;6.57;;;4.10;;
7529;SDS011;3806;52.270;10.544;2023-04-06T13:49:29;5.65;;;3.92;;
7529;SDS011;3806;52.270;10.544;2023-04-06T13:51:55;6.07;;;4.15;;
7529;SDS011;3806;52.270;10.544;2023-04-06T13:54:21;6.13;;;4.00;;
7529;SDS011;3806;52.270;10.544;2023-04-06T13:56:46;6.05;;;3.53;;
7529;SDS011;3806;52.270;10.544;2023-04-06T13:59:12;6.28;;;3.55;;
7529;SDS011;3806;52.270;10.544;2023-04-06T14:01:37;6.35;;;3.80;;
7529;SDS011;3806;52.270;10.544;2023-04-06T14:04:03;4.95;;;3.58;;
7529;SDS011;3806;52.270;10.544;2023-04-06T14:06:28;6.45;;;3.95;;
7529;SDS011;3806;52.270;10.544;2023-04-06T14:08:54;7.10;;;3.90;;
7529;SDS011;3806;52.270;10.544;2023-04-06T14:11:20;9.20;;;4.18;;
7529;SDS011;3806;52.270;10.544;2023-04-06T14:13:46;8.43;;;5.15;;
7529;SDS011;3806;52.270;10.544;2023-04-06T14:16:12;5.93;;;4.03;;
7529;SDS011;3806;52.270;10.544;2023-04-06T14:18:37;5.35;;;3.92;;
7529;SDS011;3806;52.270;10.544;2023-04-06T14:21:03;7.38;;;3.60;;
7529;SDS011;3806;52.270;10.544;2023-04-06T14:23:29;7.35;;;3.60;;
7529;SDS011;3806;52.270;10.544;2023-04-06T14:26:03;5.85;;;3.78;;
7529;SDS011;3806;52.270;10.544;2023-04-06T14:28:31;7.03;;;4.57;;
7529;SDS011;3806;52.270;10.544;2023-04-06T14:30:58;6.13;;;4.38;;
7529;SDS011;3806;52.270;10.544;2023-04-06T14:33:25;6.95;;;4.10;;
7529;SDS011;3806;52.270;10.544;2023-04-06T14:35:51;5.68;;;4.30;;
7529;SDS011;3806;52.270;10.544;2023-04-06T14:38:17;6.60;;;3.92;;
7529;SDS011;3806;52.270;10.544;2023-04-06T14:40:42;4.88;;;3.50;;
7529;SDS011;3806;52.270;10.544;2023-04-06T14:43:07;6.85;;;3.50;;
7529;SDS011;3806;52.270;10.544;2023-04-06T14:45:33;6.60;;;4.22;;
7529;SDS011;3806;52.270;10.544;2023-04-06T14:48:01;7.95;;;3.92;;
7529;SDS011;3806;52.270;10.544;2023-04-06T14:50:27;6.40;;;3.78;;
7529;SDS011;3806;52.270;10.544;2023-04-06T14:52:52;6.22;;;3.72;;
7529;SDS011;3806;52.270;10.544;2023-04-06T14:55:18;7.88;;;4.40;;
7529;SDS011;3806;52.270;10.544;2023-04-06T14:57:43;7.20;;;4.55;;
7529;SDS011;3806;52.270;10.544;2023-04-06T15:00:09;8.20;;;4.35;;